sensor_id;sensor_type;location;lat;lon;timestamp;P1;durP1;ratioP1;P2;durP2;ratioP2
44822;SDS011;51097;51.984;5.650;2023-04-08T00:01:43;45.53;;;25.33;;
44822;SDS011;51097;51.984;5.650;2023-04-08T00:04:08;42.92;;;24.35;;
44822;SDS011;51097;51.984;5.650;2023-04-08T00:06:34;48.38;;;26.58;;
44822;SDS011;51097;51.984;5.650;2023-04-08T00:09:00;43.22;;;27.20;;
44822;SDS011;51097;51.984;5.650;2023-04-08T00:11:25;41.15;;;25.67;;
44822;SDS011;51097;51.984;5.650;2023-04-08T00:13:51;34.72;;;21.02;;
44822;SDS011;51097;51.984;5.650;2023-04-08T00:16:16;80.28;;;27.88;;
44822;SDS011;51097;51.984;5.650;2023-04-08T00:18:42;117.38;;;27.08;;
44822;SDS011;51097;51.984;5.650;2023-04-08T00:21:07;48.72;;;25.00;;
44822;SDS011;51097;51.984;5.650;2023-04-08T00:23:33;47.10;;;25.13;;
44822;SDS011;51097;51.984;5.650;2023-04-08T00:25:59;42.10;;;24.00;;
44822;SDS011;51097;51.984;5.650;2023-04-08T00:28:25;34.83;;;21.20;;
44822;SDS011;51097;51.984;5.650;2023-04-08T00:30:51;40.20;;;23.23;;
44822;SDS011;51097;51.984;5.650;2023-04-08T00:33:17;93.85;;;26.85;;
44822;SDS011;51097;51.984;5.650;2023-04-08T00:35:43;77.57;;;26.13;;
44822;SDS011;51097;51.984;5.650;2023-04-08T00:38:08;51.63;;;21.92;;
44822;SDS011;51097;51.984;5.650;2023-04-08T00:40:34;64.32;;;22.55;;
44822;SDS011;51097;51.984;5.650;2023-04-08T00:42:59;72.85;;;24.10;;
44822;SDS011;51097;51.984;5.650;2023-04-08T00:45:25;73.03;;;23.38;;
44822;SDS011;51097;51.984;5.650;2023-04-08T00:47:51;52.60;;;23.73;;
44822;SDS011;51097;51.984;5.650;2023-04-08T00:50:16;63.55;;;24.63;;
44822;SDS011;51097;51.984;5.650;2023-04-08T00:52:42;64.03;;;22.00;;
44822;SDS011;51097;51.984;5.650;2023-04-08T00:55:08;167.70;;;27.13;;
44822;SDS011;51097;51.984;5.650;2023-04-08T00:57:34;105.43;;;26.70;;
44822;SDS011;51097;51.984;5.650;2023-04-08T01:00:00;70.65;;;25.70;;
44822;SDS011;51097;51.984;5.650;2023-04-08T01:05:20;52.63;;;22.08;;
44822;SDS011;51097;51.984;5.650;2023-04-08T01:07:54;70.30;;;24.70;;
44822;SDS011;51097;51.984;5.650;2023-04-08T01:10:29;68.90;;;20.40;;
44822;SDS011;51097;51.984;5.650;2023-04-08T01:12:58;66.78;;;19.50;;
44822;SDS011;51097;51.984;5.650;2023-04-08T01:15:28;108.50;;;21.33;;
44822;SDS011;51097;51.984;5.650;2023-04-08T01:17:55;91.30;;;19.80;;
44822;SDS011;51097;51.984;5.650;2023-04-08T01:20:23;84.05;;;20.05;;
44822;SDS011;51097;51.984;5.650;2023-04-08T01:23:02;77.80;;;20.80;;
44822;SDS011;51097;51.984;5.650;2023-04-08T01:25:35;71.78;;;21.67;;
44822;SDS011;51097;51.984;5.650;2023-04-08T01:28:12;58.75;;;20.02;;
44822;SDS011;51097;51.984;5.650;2023-04-08T01:30:40;68.00;;;19.50;;
44822;SDS011;51097;51.984;5.650;2023-04-08T01:33:07;33.58;;;16.90;;
44822;SDS011;51097;51.984;5.650;2023-04-08T01:38:04;61.45;;;19.70;;
44822;SDS011;51097;51.984;5.650;2023-04-08T01:40:33;34.67;;;18.48;;
44822;SDS011;51097;51.984;5.650;2023-04-08T01:43:01;41.80;;;17.92;;
44822;SDS011;51097;51.984;5.650;2023-04-08T01:45:29;86.10;;;20.55;;
44822;SDS011;51097;51.984;5.650;2023-04-08T01:47:55;38.83;;;17.10;;
44822;SDS011;51097;51.984;5.650;2023-04-08T01:50:21;47.50;;;18.55;;
44822;SDS011;51097;51.984;5.650;2023-04-08T01:52:49;60.75;;;17.05;;
44822;SDS011;51097;51.984;5.650;2023-04-08T01:55:17;57.97;;;17.63;;
44822;SDS011;51097;51.984;5.650;2023-04-08T01:57:45;55.25;;;16.98;;
44822;SDS011;51097;51.984;5.650;2023-04-08T02:00:15;36.05;;;15.95;;
44822;SDS011;51097;51.984;5.650;2023-04-08T02:02:42;41.60;;;16.58;;
44822;SDS011;51097;51.984;5.650;2023-04-08T02:05:10;42.55;;;15.38;;
44822;SDS011;51097;51.984;5.650;2023-04-08T02:07:37;40.60;;;13.70;;
44822;SDS011;51097;51.984;5.650;2023-04-08T02:10:02;24.00;;;13.77;;
44822;SDS011;51097;51.984;5.650;2023-04-08T02:12:29;59.97;;;16.25;;
44822;SDS011;51097;51.984;5.650;2023-04-08T02:14:55;35.92;;;15.73;;
44822;SDS011;51097;51.984;5.650;2023-04-08T02:20:10;31.95;;;13.18;;
44822;SDS011;51097;51.984;5.650;2023-04-08T02:25:42;28.90;;;12.80;;
44822;SDS011;51097;51.984;5.650;2023-04-08T02:28:10;60.17;;;13.43;;
44822;SDS011;51097;51.984;5.650;2023-04-08T02:30:36;38.47;;;13.40;;
44822;SDS011;51097;51.984;5.650;2023-04-08T02:33:06;34.03;;;12.88;;
44822;SDS011;51097;51.984;5.650;2023-04-08T02:35:33;22.88;;;11.80;;
44822;SDS011;51097;51.984;5.650;2023-04-08T02:38:00;33.83;;;12.02;;
44822;SDS011;51097;51.984;5.650;2023-04-08T02:42:56;19.42;;;11.52;;
44822;SDS011;51097;51.984;5.650;2023-04-08T02:45:24;40.53;;;13.23;;
44822;SDS011;51097;51.984;5.650;2023-04-08T02:47:53;25.10;;;10.35;;
44822;SDS011;51097;51.984;5.650;2023-04-08T02:50:19;24.45;;;11.10;;
44822;SDS011;51097;51.984;5.650;2023-04-08T02:52:44;23.17;;;10.75;;
44822;SDS011;51097;51.984;5.650;2023-04-08T02:55:10;28.58;;;11.02;;
44822;SDS011;51097;51.984;5.650;2023-04-08T02:57:37;14.90;;;10.20;;
44822;SDS011;51097;51.984;5.650;2023-04-08T03:00:05;17.27;;;10.00;;
44822;SDS011;51097;51.984;5.650;2023-04-08T03:02:31;16.60;;;11.35;;
44822;SDS011;51097;51.984;5.650;2023-04-08T03:04:57;22.10;;;11.80;;
44822;SDS011;51097;51.984;5.650;2023-04-08T03:07:23;16.88;;;11.18;;
44822;SDS011;51097;51.984;5.650;2023-04-08T03:09:49;13.40;;;10.70;;
44822;SDS011;51097;51.984;5.650;2023-04-08T03:12:14;24.65;;;12.32;;
44822;SDS011;51097;51.984;5.650;2023-04-08T03:14:40;26.70;;;12.32;;
44822;SDS011;51097;51.984;5.650;2023-04-08T03:17:06;18.92;;;11.90;;
44822;SDS011;51097;51.984;5.650;2023-04-08T03:19:31;21.42;;;12.38;;
44822;SDS011;51097;51.984;5.650;2023-04-08T03:21:57;26.30;;;11.80;;
44822;SDS011;51097;51.984;5.650;2023-04-08T03:24:22;30.05;;;12.73;;
44822;SDS011;51097;51.984;5.650;2023-04-08T03:26:48;28.90;;;12.70;;
44822;SDS011;51097;51.984;5.650;2023-04-08T03:29:13;19.10;;;12.30;;
44822;SDS011;51097;51.984;5.650;2023-04-08T03:31:39;23.52;;;13.45;;
44822;SDS011;51097;51.984;5.650;2023-04-08T03:34:04;13.95;;;12.20;;
44822;SDS011;51097;51.984;5.650;2023-04-08T03:36:30;30.67;;;13.05;;
44822;SDS011;51097;51.984;5.650;2023-04-08T03:38:56;28.38;;;13.35;;
44822;SDS011;51097;51.984;5.650;2023-04-08T03:41:21;27.73;;;12.35;;
44822;SDS011;51097;51.984;5.650;2023-04-08T03:43:47;27.70;;;13.30;;
44822;SDS011;51097;51.984;5.650;2023-04-08T03:46:12;27.92;;;13.02;;
44822;SDS011;51097;51.984;5.650;2023-04-08T03:48:38;28.33;;;12.80;;
44822;SDS011;51097;51.984;5.650;2023-04-08T03:51:04;21.92;;;11.65;;
44822;SDS011;51097;51.984;5.650;2023-04-08T03:53:29;32.22;;;12.88;;
44822;SDS011;51097;51.984;5.650;2023-04-08T03:55:55;22.95;;;12.50;;
44822;SDS011;51097;51.984;5.650;2023-04-08T03:58:21;35.28;;;12.75;;
44822;SDS011;51097;51.984;5.650;2023-04-08T04:00:47;27.50;;;13.68;;
44822;SDS011;51097;51.984;5.650;2023-04-08T04:03:12;18.90;;;12.32;;
44822;SDS011;51097;51.984;5.650;2023-04-08T04:05:38;19.60;;;14.48;;
44822;SDS011;51097;51.984;5.650;2023-04-08T04:08:04;25.67;;;13.98;;
44822;SDS011;51097;51.984;5.650;2023-04-08T04:10:30;23.17;;;14.68;;
44822;SDS011;51097;51.984;5.650;2023-04-08T04:12:56;20.92;;;14.27;;
44822;SDS011;51097;51.984;5.650;2023-04-08T04:15:21;19.27;;;14.05;;
44822;SDS011;51097;51.984;5.650;2023-04-08T04:17:47;19.58;;;14.50;;
44822;SDS011;51097;51.984;5.650;2023-04-08T04:20:14;25.08;;;14.85;;
44822;SDS011;51097;51.984;5.650;2023-04-08T04:22:40;18.13;;;13.88;;
44822;SDS011;51097;51.984;5.650;2023-04-08T04:25:06;22.08;;;15.45;;
44822;SDS011;51097;51.984;5.650;2023-04-08T04:27:32;19.02;;;14.30;;
44822;SDS011;51097;51.984;5.650;2023-04-08T04:29:59;24.33;;;15.80;;
44822;SDS011;51097;51.984;5.650;2023-04-08T04:32:24;22.90;;;14.63;;
44822;SDS011;51097;51.984;5.650;2023-04-08T04:34:50;20.95;;;15.25;;
44822;SDS011;51097;51.984;5.650;2023-04-08T04:37:16;19.48;;;15.07;;
44822;SDS011;51097;51.984;5.650;2023-04-08T04:39:42;18.52;;;13.82;;
44822;SDS011;51097;51.984;5.650;2023-04-08T04:42:08;19.75;;;15.00;;
44822;SDS011;51097;51.984;5.650;2023-04-08T04:44:33;20.50;;;14.55;;
44822;SDS011;51097;51.984;5.650;2023-04-08T04:46:59;20.67;;;14.32;;
44822;SDS011;51097;51.984;5.650;2023-04-08T04:49:24;19.52;;;14.73;;
44822;SDS011;51097;51.984;5.650;2023-04-08T04:51:50;53.85;;;16.02;;
44822;SDS011;51097;51.984;5.650;2023-04-08T04:54:15;36.53;;;16.40;;
44822;SDS011;51097;51.984;5.650;2023-04-08T04:56:41;37.75;;;14.43;;
44822;SDS011;51097;51.984;5.650;2023-04-08T04:59:07;29.50;;;14.65;;
44822;SDS011;51097;51.984;5.650;2023-04-08T05:01:32;27.90;;;15.13;;
44822;SDS011;51097;51.984;5.650;2023-04-08T05:03:58;29.52;;;14.63;;
44822;SDS011;51097;51.984;5.650;2023-04-08T05:06:24;33.45;;;14.25;;
44822;SDS011;51097;51.984;5.650;2023-04-08T05:08:51;48.22;;;15.40;;
44822;SDS011;51097;51.984;5.650;2023-04-08T05:11:17;26.58;;;14.80;;
44822;SDS011;51097;51.984;5.650;2023-04-08T05:13:42;23.75;;;15.57;;
44822;SDS011;51097;51.984;5.650;2023-04-08T05:16:08;65.18;;;17.15;;
44822;SDS011;51097;51.984;5.650;2023-04-08T05:18:34;35.83;;;17.90;;
44822;SDS011;51097;51.984;5.650;2023-04-08T05:21:00;41.47;;;16.15;;
44822;SDS011;51097;51.984;5.650;2023-04-08T05:23:26;82.18;;;17.05;;
44822;SDS011;51097;51.984;5.650;2023-04-08T05:25:51;105.35;;;19.90;;
44822;SDS011;51097;51.984;5.650;2023-04-08T05:28:17;34.15;;;12.82;;
44822;SDS011;51097;51.984;5.650;2023-04-08T05:30:47;108.15;;;20.50;;
44822;SDS011;51097;51.984;5.650;2023-04-08T05:33:13;51.90;;;15.45;;
44822;SDS011;51097;51.984;5.650;2023-04-08T05:35:39;55.38;;;15.40;;
44822;SDS011;51097;51.984;5.650;2023-04-08T05:38:04;46.60;;;15.80;;
44822;SDS011;51097;51.984;5.650;2023-04-08T05:40:31;80.07;;;17.42;;
44822;SDS011;51097;51.984;5.650;2023-04-08T05:42:57;72.28;;;16.17;;
44822;SDS011;51097;51.984;5.650;2023-04-08T05:45:22;94.93;;;20.83;;
44822;SDS011;51097;51.984;5.650;2023-04-08T05:47:48;58.17;;;16.08;;
44822;SDS011;51097;51.984;5.650;2023-04-08T05:50:13;111.80;;;18.38;;
44822;SDS011;51097;51.984;5.650;2023-04-08T05:52:42;108.93;;;18.75;;
44822;SDS011;51097;51.984;5.650;2023-04-08T05:55:12;52.20;;;17.13;;
44822;SDS011;51097;51.984;5.650;2023-04-08T05:57:38;60.00;;;17.52;;
44822;SDS011;51097;51.984;5.650;2023-04-08T06:00:05;33.13;;;16.02;;
44822;SDS011;51097;51.984;5.650;2023-04-08T06:02:32;39.35;;;15.90;;
44822;SDS011;51097;51.984;5.650;2023-04-08T06:04:58;37.85;;;17.13;;
44822;SDS011;51097;51.984;5.650;2023-04-08T06:07:24;40.53;;;16.17;;
44822;SDS011;51097;51.984;5.650;2023-04-08T06:09:49;64.22;;;18.20;;
44822;SDS011;51097;51.984;5.650;2023-04-08T06:12:15;29.42;;;16.63;;
44822;SDS011;51097;51.984;5.650;2023-04-08T06:14:41;25.63;;;16.17;;
44822;SDS011;51097;51.984;5.650;2023-04-08T06:17:06;29.15;;;16.35;;
44822;SDS011;51097;51.984;5.650;2023-04-08T06:19:32;23.98;;;14.73;;
44822;SDS011;51097;51.984;5.650;2023-04-08T06:21:57;25.05;;;16.42;;
44822;SDS011;51097;51.984;5.650;2023-04-08T06:24:26;32.20;;;17.95;;
44822;SDS011;51097;51.984;5.650;2023-04-08T06:26:53;25.90;;;15.85;;
44822;SDS011;51097;51.984;5.650;2023-04-08T06:29:20;22.42;;;14.00;;
44822;SDS011;51097;51.984;5.650;2023-04-08T06:31:46;23.67;;;14.20;;
44822;SDS011;51097;51.984;5.650;2023-04-08T06:34:12;22.02;;;14.13;;
44822;SDS011;51097;51.984;5.650;2023-04-08T06:36:38;26.20;;;14.07;;
44822;SDS011;51097;51.984;5.650;2023-04-08T06:39:03;31.50;;;14.93;;
44822;SDS011;51097;51.984;5.650;2023-04-08T06:41:29;23.67;;;14.52;;
44822;SDS011;51097;51.984;5.650;2023-04-08T06:43:55;23.05;;;15.20;;
44822;SDS011;51097;51.984;5.650;2023-04-08T06:46:20;18.02;;;14.13;;
44822;SDS011;51097;51.984;5.650;2023-04-08T06:48:46;17.42;;;13.82;;
44822;SDS011;51097;51.984;5.650;2023-04-08T06:51:12;22.60;;;15.95;;
44822;SDS011;51097;51.984;5.650;2023-04-08T06:53:37;22.42;;;14.73;;
44822;SDS011;51097;51.984;5.650;2023-04-08T06:56:03;20.50;;;15.40;;
44822;SDS011;51097;51.984;5.650;2023-04-08T06:58:29;19.95;;;15.65;;
44822;SDS011;51097;51.984;5.650;2023-04-08T07:00:54;22.58;;;16.48;;
44822;SDS011;51097;51.984;5.650;2023-04-08T07:03:20;20.25;;;16.60;;
44822;SDS011;51097;51.984;5.650;2023-04-08T07:05:46;15.98;;;14.02;;
44822;SDS011;51097;51.984;5.650;2023-04-08T07:08:12;17.92;;;14.73;;
44822;SDS011;51097;51.984;5.650;2023-04-08T07:10:37;18.48;;;14.68;;
44822;SDS011;51097;51.984;5.650;2023-04-08T07:13:03;16.73;;;14.23;;
44822;SDS011;51097;51.984;5.650;2023-04-08T07:15:29;17.17;;;13.90;;
44822;SDS011;51097;51.984;5.650;2023-04-08T07:17:54;17.60;;;14.80;;
44822;SDS011;51097;51.984;5.650;2023-04-08T07:20:21;15.98;;;13.35;;
44822;SDS011;51097;51.984;5.650;2023-04-08T07:22:50;15.63;;;13.93;;
44822;SDS011;51097;51.984;5.650;2023-04-08T07:25:15;18.63;;;14.20;;
44822;SDS011;51097;51.984;5.650;2023-04-08T07:27:41;14.60;;;13.02;;
44822;SDS011;51097;51.984;5.650;2023-04-08T07:30:07;17.00;;;14.13;;
44822;SDS011;51097;51.984;5.650;2023-04-08T07:32:33;15.73;;;12.90;;
44822;SDS011;51097;51.984;5.650;2023-04-08T07:34:59;14.13;;;12.48;;
44822;SDS011;51097;51.984;5.650;2023-04-08T07:37:25;14.65;;;13.05;;
44822;SDS011;51097;51.984;5.650;2023-04-08T07:39:51;17.58;;;13.95;;
44822;SDS011;51097;51.984;5.650;2023-04-08T07:42:17;16.63;;;13.00;;
44822;SDS011;51097;51.984;5.650;2023-04-08T07:44:42;13.98;;;11.90;;
44822;SDS011;51097;51.984;5.650;2023-04-08T07:47:09;14.18;;;12.27;;
44822;SDS011;51097;51.984;5.650;2023-04-08T07:49:35;14.65;;;13.00;;
44822;SDS011;51097;51.984;5.650;2023-04-08T07:52:01;15.73;;;13.40;;
44822;SDS011;51097;51.984;5.650;2023-04-08T07:54:27;14.48;;;12.98;;
44822;SDS011;51097;51.984;5.650;2023-04-08T07:56:54;15.98;;;13.48;;
44822;SDS011;51097;51.984;5.650;2023-04-08T07:59:20;16.25;;;12.60;;
44822;SDS011;51097;51.984;5.650;2023-04-08T08:01:46;17.02;;;15.02;;
44822;SDS011;51097;51.984;5.650;2023-04-08T08:04:12;15.75;;;14.00;;
44822;SDS011;51097;51.984;5.650;2023-04-08T08:06:37;18.38;;;13.38;;
44822;SDS011;51097;51.984;5.650;2023-04-08T08:09:03;15.95;;;13.75;;
44822;SDS011;51097;51.984;5.650;2023-04-08T08:11:29;18.27;;;14.40;;
44822;SDS011;51097;51.984;5.650;2023-04-08T08:13:55;14.95;;;13.27;;
44822;SDS011;51097;51.984;5.650;2023-04-08T08:16:21;16.75;;;13.70;;
44822;SDS011;51097;51.984;5.650;2023-04-08T08:18:46;15.30;;;13.60;;
44822;SDS011;51097;51.984;5.650;2023-04-08T08:21:12;15.10;;;13.60;;
44822;SDS011;51097;51.984;5.650;2023-04-08T08:23:37;16.50;;;13.95;;
44822;SDS011;51097;51.984;5.650;2023-04-08T08:26:06;12.20;;;10.93;;
44822;SDS011;51097;51.984;5.650;2023-04-08T08:28:36;15.00;;;13.45;;
44822;SDS011;51097;51.984;5.650;2023-04-08T08:31:02;17.48;;;14.30;;
44822;SDS011;51097;51.984;5.650;2023-04-08T08:33:29;15.20;;;12.90;;
44822;SDS011;51097;51.984;5.650;2023-04-08T08:35:55;15.07;;;13.55;;
44822;SDS011;51097;51.984;5.650;2023-04-08T08:38:22;14.90;;;13.27;;
44822;SDS011;51097;51.984;5.650;2023-04-08T08:40:52;14.38;;;12.57;;
44822;SDS011;51097;51.984;5.650;2023-04-08T08:43:19;16.10;;;12.50;;
44822;SDS011;51097;51.984;5.650;2023-04-08T08:45:45;13.52;;;12.23;;
44822;SDS011;51097;51.984;5.650;2023-04-08T08:48:10;13.35;;;11.95;;
44822;SDS011;51097;51.984;5.650;2023-04-08T08:50:36;14.50;;;12.23;;
44822;SDS011;51097;51.984;5.650;2023-04-08T08:53:02;14.13;;;12.07;;
44822;SDS011;51097;51.984;5.650;2023-04-08T08:55:29;13.50;;;12.10;;
44822;SDS011;51097;51.984;5.650;2023-04-08T08:57:56;13.77;;;12.48;;
44822;SDS011;51097;51.984;5.650;2023-04-08T09:00:35;13.27;;;11.70;;
44822;SDS011;51097;51.984;5.650;2023-04-08T09:03:15;12.85;;;11.65;;
44822;SDS011;51097;51.984;5.650;2023-04-08T09:06:01;12.38;;;11.20;;
44822;SDS011;51097;51.984;5.650;2023-04-08T09:08:31;13.45;;;12.25;;
44822;SDS011;51097;51.984;5.650;2023-04-08T09:11:19;13.52;;;11.63;;
44822;SDS011;51097;51.984;5.650;2023-04-08T09:13:45;12.70;;;11.50;;
44822;SDS011;51097;51.984;5.650;2023-04-08T09:16:12;14.55;;;12.70;;
44822;SDS011;51097;51.984;5.650;2023-04-08T09:18:40;12.35;;;11.07;;
44822;SDS011;51097;51.984;5.650;2023-04-08T09:21:08;13.18;;;11.85;;
44822;SDS011;51097;51.984;5.650;2023-04-08T09:23:43;13.90;;;11.77;;
44822;SDS011;51097;51.984;5.650;2023-04-08T09:26:13;12.40;;;11.23;;
44822;SDS011;51097;51.984;5.650;2023-04-08T09:28:41;12.20;;;11.13;;
44822;SDS011;51097;51.984;5.650;2023-04-08T09:31:27;14.63;;;12.18;;
44822;SDS011;51097;51.984;5.650;2023-04-08T09:33:56;13.10;;;11.90;;
44822;SDS011;51097;51.984;5.650;2023-04-08T09:36:23;12.52;;;11.30;;
44822;SDS011;51097;51.984;5.650;2023-04-08T09:38:50;13.38;;;12.05;;
44822;SDS011;51097;51.984;5.650;2023-04-08T09:41:17;12.68;;;11.45;;
44822;SDS011;51097;51.984;5.650;2023-04-08T09:43:48;14.50;;;12.80;;
44822;SDS011;51097;51.984;5.650;2023-04-08T09:46:14;13.52;;;12.15;;
44822;SDS011;51097;51.984;5.650;2023-04-08T09:48:54;12.70;;;11.45;;
44822;SDS011;51097;51.984;5.650;2023-04-08T09:51:31;12.82;;;11.57;;
44822;SDS011;51097;51.984;5.650;2023-04-08T09:54:05;13.05;;;11.75;;
44822;SDS011;51097;51.984;5.650;2023-04-08T09:56:40;13.07;;;11.88;;
44822;SDS011;51097;51.984;5.650;2023-04-08T09:59:13;13.43;;;12.18;;
44822;SDS011;51097;51.984;5.650;2023-04-08T10:01:43;14.50;;;13.10;;
44822;SDS011;51097;51.984;5.650;2023-04-08T10:04:14;13.43;;;12.13;;
44822;SDS011;51097;51.984;5.650;2023-04-08T10:06:43;13.15;;;11.82;;
44822;SDS011;51097;51.984;5.650;2023-04-08T10:09:09;11.52;;;10.40;;
44822;SDS011;51097;51.984;5.650;2023-04-08T10:11:35;13.00;;;11.80;;
44822;SDS011;51097;51.984;5.650;2023-04-08T10:14:01;10.90;;;9.80;;
44822;SDS011;51097;51.984;5.650;2023-04-08T10:16:27;11.00;;;10.02;;
44822;SDS011;51097;51.984;5.650;2023-04-08T10:18:53;11.93;;;10.93;;
44822;SDS011;51097;51.984;5.650;2023-04-08T10:24:07;11.38;;;10.20;;
44822;SDS011;51097;51.984;5.650;2023-04-08T10:26:38;11.40;;;10.35;;
44822;SDS011;51097;51.984;5.650;2023-04-08T10:31:46;14.70;;;11.13;;
44822;SDS011;51097;51.984;5.650;2023-04-08T10:34:16;11.98;;;10.65;;
44822;SDS011;51097;51.984;5.650;2023-04-08T10:36:45;11.43;;;9.13;;
44822;SDS011;51097;51.984;5.650;2023-04-08T10:39:12;12.48;;;10.13;;
44822;SDS011;51097;51.984;5.650;2023-04-08T10:41:45;10.80;;;9.90;;
44822;SDS011;51097;51.984;5.650;2023-04-08T10:44:15;11.63;;;10.52;;
44822;SDS011;51097;51.984;5.650;2023-04-08T10:46:41;10.80;;;9.80;;
44822;SDS011;51097;51.984;5.650;2023-04-08T10:49:07;11.82;;;10.60;;
44822;SDS011;51097;51.984;5.650;2023-04-08T10:51:33;10.10;;;9.10;;
44822;SDS011;51097;51.984;5.650;2023-04-08T10:54:12;10.70;;;9.80;;
44822;SDS011;51097;51.984;5.650;2023-04-08T10:56:47;10.20;;;9.30;;
44822;SDS011;51097;51.984;5.650;2023-04-08T10:59:26;10.18;;;9.27;;
44822;SDS011;51097;51.984;5.650;2023-04-08T11:01:58;9.25;;;8.35;;
44822;SDS011;51097;51.984;5.650;2023-04-08T11:04:25;10.88;;;8.95;;
44822;SDS011;51097;51.984;5.650;2023-04-08T11:06:51;10.00;;;9.00;;
44822;SDS011;51097;51.984;5.650;2023-04-08T11:09:17;12.00;;;8.98;;
44822;SDS011;51097;51.984;5.650;2023-04-08T11:11:43;12.18;;;9.25;;
44822;SDS011;51097;51.984;5.650;2023-04-08T11:14:10;9.00;;;8.10;;
44822;SDS011;51097;51.984;5.650;2023-04-08T11:16:36;9.13;;;8.23;;
44822;SDS011;51097;51.984;5.650;2023-04-08T11:19:03;10.30;;;8.85;;
44822;SDS011;51097;51.984;5.650;2023-04-08T11:21:30;10.20;;;9.10;;
44822;SDS011;51097;51.984;5.650;2023-04-08T11:23:56;11.25;;;8.65;;
44822;SDS011;51097;51.984;5.650;2023-04-08T11:26:22;9.23;;;8.32;;
44822;SDS011;51097;51.984;5.650;2023-04-08T11:28:49;9.90;;;8.90;;
44822;SDS011;51097;51.984;5.650;2023-04-08T11:31:15;10.70;;;9.60;;
44822;SDS011;51097;51.984;5.650;2023-04-08T11:33:48;11.63;;;9.63;;
44822;SDS011;51097;51.984;5.650;2023-04-08T11:36:17;10.70;;;9.18;;
44822;SDS011;51097;51.984;5.650;2023-04-08T11:38:43;10.68;;;9.00;;
44822;SDS011;51097;51.984;5.650;2023-04-08T11:41:09;12.90;;;9.30;;
44822;SDS011;51097;51.984;5.650;2023-04-08T11:43:36;12.18;;;10.20;;
44822;SDS011;51097;51.984;5.650;2023-04-08T11:46:11;11.57;;;9.85;;
44822;SDS011;51097;51.984;5.650;2023-04-08T11:48:37;11.85;;;9.52;;
44822;SDS011;51097;51.984;5.650;2023-04-08T11:51:04;11.43;;;9.55;;
44822;SDS011;51097;51.984;5.650;2023-04-08T11:53:33;9.82;;;8.80;;
44822;SDS011;51097;51.984;5.650;2023-04-08T11:56:14;9.88;;;8.88;;
44822;SDS011;51097;51.984;5.650;2023-04-08T11:58:41;9.98;;;8.98;;
44822;SDS011;51097;51.984;5.650;2023-04-08T12:01:06;15.90;;;10.20;;
44822;SDS011;51097;51.984;5.650;2023-04-08T12:03:32;12.15;;;9.43;;
44822;SDS011;51097;51.984;5.650;2023-04-08T12:05:57;9.60;;;8.65;;
44822;SDS011;51097;51.984;5.650;2023-04-08T12:08:23;11.07;;;8.95;;
44822;SDS011;51097;51.984;5.650;2023-04-08T12:10:49;11.38;;;8.70;;
44822;SDS011;51097;51.984;5.650;2023-04-08T12:13:15;10.77;;;8.40;;
44822;SDS011;51097;51.984;5.650;2023-04-08T12:15:40;11.70;;;8.50;;
44822;SDS011;51097;51.984;5.650;2023-04-08T12:18:06;10.70;;;8.32;;
44822;SDS011;51097;51.984;5.650;2023-04-08T12:20:32;10.43;;;8.52;;
44822;SDS011;51097;51.984;5.650;2023-04-08T12:22:57;12.60;;;8.85;;
44822;SDS011;51097;51.984;5.650;2023-04-08T12:25:23;12.40;;;7.82;;
44822;SDS011;51097;51.984;5.650;2023-04-08T12:27:48;10.50;;;8.90;;
44822;SDS011;51097;51.984;5.650;2023-04-08T12:30:14;9.68;;;8.68;;
44822;SDS011;51097;51.984;5.650;2023-04-08T12:32:40;11.90;;;9.95;;
44822;SDS011;51097;51.984;5.650;2023-04-08T12:35:06;10.65;;;9.55;;
44822;SDS011;51097;51.984;5.650;2023-04-08T12:37:32;11.70;;;8.50;;
44822;SDS011;51097;51.984;5.650;2023-04-08T12:39:58;10.82;;;8.15;;
44822;SDS011;51097;51.984;5.650;2023-04-08T12:42:23;9.35;;;8.52;;
44822;SDS011;51097;51.984;5.650;2023-04-08T12:44:49;9.95;;;8.55;;
44822;SDS011;51097;51.984;5.650;2023-04-08T12:47:14;10.45;;;8.90;;
44822;SDS011;51097;51.984;5.650;2023-04-08T12:49:40;9.48;;;8.68;;
44822;SDS011;51097;51.984;5.650;2023-04-08T12:52:06;12.07;;;9.07;;
44822;SDS011;51097;51.984;5.650;2023-04-08T12:54:31;14.32;;;9.75;;
44822;SDS011;51097;51.984;5.650;2023-04-08T12:56:57;9.80;;;8.55;;
44822;SDS011;51097;51.984;5.650;2023-04-08T12:59:22;10.75;;;9.05;;
44822;SDS011;51097;51.984;5.650;2023-04-08T13:01:48;12.70;;;9.48;;
44822;SDS011;51097;51.984;5.650;2023-04-08T13:04:13;10.77;;;9.02;;
44822;SDS011;51097;51.984;5.650;2023-04-08T13:06:39;12.70;;;9.07;;
44822;SDS011;51097;51.984;5.650;2023-04-08T13:09:04;8.98;;;8.07;;
44822;SDS011;51097;51.984;5.650;2023-04-08T13:11:30;9.40;;;8.18;;
44822;SDS011;51097;51.984;5.650;2023-04-08T13:13:57;9.38;;;8.48;;
44822;SDS011;51097;51.984;5.650;2023-04-08T13:16:23;9.45;;;8.48;;
44822;SDS011;51097;51.984;5.650;2023-04-08T13:18:49;8.13;;;7.43;;
44822;SDS011;51097;51.984;5.650;2023-04-08T13:21:16;8.05;;;7.22;;
44822;SDS011;51097;51.984;5.650;2023-04-08T13:23:41;8.27;;;7.43;;
44822;SDS011;51097;51.984;5.650;2023-04-08T13:26:07;8.43;;;7.63;;
44822;SDS011;51097;51.984;5.650;2023-04-08T13:28:32;8.82;;;8.07;;
44822;SDS011;51097;51.984;5.650;2023-04-08T13:30:58;9.02;;;8.13;;
44822;SDS011;51097;51.984;5.650;2023-04-08T13:33:24;8.43;;;7.65;;
44822;SDS011;51097;51.984;5.650;2023-04-08T13:35:52;9.32;;;8.18;;
44822;SDS011;51097;51.984;5.650;2023-04-08T13:38:18;9.73;;;7.10;;
44822;SDS011;51097;51.984;5.650;2023-04-08T13:40:43;9.60;;;8.70;;
44822;SDS011;51097;51.984;5.650;2023-04-08T13:43:09;8.10;;;7.38;;
44822;SDS011;51097;51.984;5.650;2023-04-08T13:45:34;8.68;;;7.78;;
44822;SDS011;51097;51.984;5.650;2023-04-08T13:48:00;8.85;;;7.88;;
44822;SDS011;51097;51.984;5.650;2023-04-08T13:50:25;8.85;;;7.95;;
44822;SDS011;51097;51.984;5.650;2023-04-08T13:52:51;7.70;;;6.40;;
44822;SDS011;51097;51.984;5.650;2023-04-08T13:55:17;6.97;;;6.35;;
44822;SDS011;51097;51.984;5.650;2023-04-08T13:57:42;9.10;;;6.35;;
44822;SDS011;51097;51.984;5.650;2023-04-08T14:00:08;7.72;;;6.60;;
44822;SDS011;51097;51.984;5.650;2023-04-08T14:02:34;8.98;;;6.00;;
44822;SDS011;51097;51.984;5.650;2023-04-08T14:05:00;8.00;;;7.20;;
44822;SDS011;51097;51.984;5.650;2023-04-08T14:07:25;8.23;;;7.53;;
44822;SDS011;51097;51.984;5.650;2023-04-08T14:09:51;8.38;;;7.35;;
44822;SDS011;51097;51.984;5.650;2023-04-08T14:12:17;8.57;;;7.43;;
44822;SDS011;51097;51.984;5.650;2023-04-08T14:14:42;7.15;;;6.45;;
44822;SDS011;51097;51.984;5.650;2023-04-08T14:17:08;6.65;;;5.95;;
44822;SDS011;51097;51.984;5.650;2023-04-08T14:19:33;6.22;;;5.57;;
44822;SDS011;51097;51.984;5.650;2023-04-08T14:21:59;6.53;;;5.90;;
44822;SDS011;51097;51.984;5.650;2023-04-08T14:24:25;7.15;;;6.45;;
44822;SDS011;51097;51.984;5.650;2023-04-08T14:26:51;7.05;;;6.35;;
44822;SDS011;51097;51.984;5.650;2023-04-08T14:29:16;8.77;;;7.88;;
44822;SDS011;51097;51.984;5.650;2023-04-08T14:31:42;7.25;;;6.57;;
44822;SDS011;51097;51.984;5.650;2023-04-08T14:34:07;7.13;;;6.32;;
44822;SDS011;51097;51.984;5.650;2023-04-08T14:36:33;7.07;;;6.22;;
44822;SDS011;51097;51.984;5.650;2023-04-08T14:38:58;7.35;;;6.63;;
44822;SDS011;51097;51.984;5.650;2023-04-08T14:41:24;7.18;;;6.47;;
44822;SDS011;51097;51.984;5.650;2023-04-08T14:43:51;8.05;;;6.63;;